Time;durP1;ratioP1;P1;durP2;ratioP2;P2;SDS_P1;SDS_P2;PMS_P1;PMS_P2;Temp;Humidity;BMP_temperature;BMP_pressure;BME280_temperature;BME280_humidity;BME280_pressure;Samples;Min_cycle;Max_cycle;Signal;HPM_P1;HPM_P2
2024/01/05 00:01:31;;;;;;;0.00;0.00;;;23.00;48.20;;;;;;5111554;28;20252;-44
2024/01/05 00:04:02;;;;;;;0.05;0.05;;;23.00;48.20;;;;;;5111643;28;20649;-44
2024/01/05 00:06:33;;;;;;;0.00;0.00;;;23.00;48.20;;;;;;5113105;28;20243;-49
2024/01/05 00:09:05;;;;;;;0.00;0.00;;;23.00;48.20;;;;;;5136305;27;20672;-49
2024/01/05 00:11:36;;;;;;;0.10;0.10;;;23.00;48.20;;;;;;5136569;27;20226;-47
2024/01/05 00:14:07;;;;;;;0.00;0.00;;;23.00;48.20;;;;;;5136314;27;20195;-43
2024/01/05 00:16:38;;;;;;;0.05;0.05;;;23.00;48.30;;;;;;5136753;27;20443;-42
2024/01/05 00:19:09;;;;;;;0.10;0.10;;;22.90;48.20;;;;;;5136361;27;20684;-45
2024/01/05 00:21:39;;;;;;;0.10;0.10;;;23.00;48.20;;;;;;5136475;27;20204;-47
2024/01/05 00:24:12;;;;;;;0.08;0.08;;;22.90;48.20;;;;;;5122317;27;20186;-48
2024/01/05 00:26:44;;;;;;;0.00;0.00;;;22.90;48.20;;;;;;5115419;28;20648;-47
2024/01/05 00:29:15;;;;;;;0.00;0.00;;;23.00;48.30;;;;;;5114853;28;20225;-44
2024/01/05 00:31:46;;;;;;;0.00;0.00;;;22.90;48.20;;;;;;5115221;28;20189;-46
2024/01/05 00:34:16;;;;;;;0.10;0.10;;;22.90;48.20;;;;;;5115175;28;20553;-46
2024/01/05 00:36:47;;;;;;;0.10;0.10;;;22.90;48.20;;;;;;5116153;27;20197;-48
2024/01/05 00:39:20;;;;;;;0.00;0.00;;;22.90;48.20;;;;;;5135549;27;20204;-49
2024/01/05 00:41:50;;;;;;;0.00;0.00;;;22.90;48.20;;;;;;5136049;27;20566;-47
2024/01/05 00:44:21;;;;;;;0.03;0.03;;;22.90;48.20;;;;;;5136113;27;20204;-46
2024/01/05 00:46:52;;;;;;;0.00;0.00;;;22.90;48.20;;;;;;5135965;27;20197;-49
2024/01/05 00:49:22;;;;;;;0.00;0.00;;;22.90;48.20;;;;;;5135835;27;20227;-50
2024/01/05 00:51:53;;;;;;;0.00;0.00;;;22.90;48.20;;;;;;5135602;27;20591;-46
2024/01/05 00:54:26;;;;;;;0.03;0.03;;;22.90;48.20;;;;;;5135803;27;20204;-46
2024/01/05 00:56:56;;;;;;;0.00;0.00;;;22.90;48.20;;;;;;5135651;27;20192;-46
2024/01/05 00:59:27;;;;;;;0.00;0.00;;;22.90;48.20;;;;;;5135297;27;20680;-47
2024/01/05 01:01:58;;;;;;;0.00;0.00;;;22.90;48.20;;;;;;5135828;27;20189;-48
2024/01/05 01:04:28;;;;;;;0.00;0.00;;;22.90;48.20;;;;;;5135262;27;20185;-45
2024/01/05 01:06:59;;;;;;;0.00;0.00;;;22.90;48.20;;;;;;5135066;27;20197;-47
2024/01/05 01:09:32;;;;;;;0.00;0.00;;;22.90;48.20;;;;;;5135269;27;20221;-46
2024/01/05 01:12:02;;;;;;;0.00;0.00;;;22.90;48.20;;;;;;5135524;27;20271;-48
2024/01/05 01:14:33;;;;;;;0.00;0.00;;;22.90;48.20;;;;;;5135370;27;20196;-48
2024/01/05 01:17:04;;;;;;;0.10;0.10;;;22.90;48.20;;;;;;5135740;27;20551;-48
2024/01/05 01:19:34;;;;;;;0.10;0.10;;;22.80;48.10;;;;;;5134762;27;20687;-46
2024/01/05 01:22:05;;;;;;;0.00;0.00;;;22.80;48.10;;;;;;5135332;27;20188;-46
2024/01/05 01:24:38;;;;;;;0.00;0.00;;;22.80;48.20;;;;;;5134963;27;20601;-50
2024/01/05 01:27:09;;;;;;;0.10;0.10;;;22.80;48.10;;;;;;5134791;27;20192;-46
2024/01/05 01:29:39;;;;;;;0.00;0.00;;;22.80;48.10;;;;;;5134500;27;20228;-45
2024/01/05 01:32:10;;;;;;;0.10;0.10;;;22.80;48.10;;;;;;5134774;27;20676;-48
2024/01/05 01:34:42;;;;;;;0.10;0.10;;;22.80;48.10;;;;;;5131421;27;20189;-43
2024/01/05 01:37:13;;;;;;;0.00;0.00;;;22.80;48.10;;;;;;5135284;27;20207;-42
2024/01/05 01:39:46;;;;;;;0.10;0.10;;;22.80;48.10;;;;;;5134510;27;20219;-46
2024/01/05 01:42:17;;;;;;;0.00;0.00;;;22.80;48.00;;;;;;5134455;27;20441;-46
2024/01/05 01:44:47;;;;;;;0.10;0.10;;;22.80;48.10;;;;;;5134764;27;20661;-44
2024/01/05 01:47:18;;;;;;;0.00;0.00;;;22.80;48.00;;;;;;5134279;27;20193;-43
2024/01/05 01:49:49;;;;;;;0.10;0.10;;;22.80;48.00;;;;;;5134757;27;20225;-45
2024/01/05 01:52:20;;;;;;;0.10;0.10;;;22.80;48.00;;;;;;5134711;27;20640;-42
2024/01/05 01:54:53;;;;;;;0.00;0.00;;;22.80;48.00;;;;;;5135086;27;20212;-43
2024/01/05 01:57:25;;;;;;;0.00;0.00;;;22.80;48.10;;;;;;5134767;27;20197;-44
2024/01/05 01:59:55;;;;;;;0.00;0.00;;;22.80;48.00;;;;;;5134456;27;20212;-47
2024/01/05 02:02:27;;;;;;;0.10;0.10;;;22.80;48.00;;;;;;5134594;27;20200;-50
2024/01/05 02:04:58;;;;;;;0.00;0.00;;;22.80;48.00;;;;;;5134150;27;20565;-45
2024/01/05 02:07:29;;;;;;;0.00;0.00;;;22.80;48.00;;;;;;5133686;27;20207;-45
2024/01/05 02:10:02;;;;;;;0.00;0.00;;;22.80;48.00;;;;;;5133594;27;20289;-43
2024/01/05 02:12:32;;;;;;;0.03;0.03;;;22.80;48.10;;;;;;5133615;27;20216;-42
2024/01/05 02:15:03;;;;;;;0.00;0.00;;;22.70;48.00;;;;;;5129829;27;20203;-46
2024/01/05 02:17:36;;;;;;;0.00;0.00;;;22.70;48.00;;;;;;5113466;28;20198;-46
2024/01/05 02:20:07;;;;;;;0.00;0.00;;;22.70;48.00;;;;;;5112685;28;20239;-43
2024/01/05 02:22:40;;;;;;;0.10;0.10;;;22.70;48.00;;;;;;5112839;28;20193;-43
2024/01/05 02:25:13;;;;;;;0.00;0.00;;;22.70;48.00;;;;;;5113512;28;20590;-45
2024/01/05 02:27:45;;;;;;;0.00;0.00;;;22.70;48.00;;;;;;5113452;28;20680;-42
2024/01/05 02:30:22;;;;;;;0.00;0.00;;;22.70;48.00;;;;;;5112352;28;20226;-46
2024/01/05 02:32:53;;;;;;;0.00;0.00;;;22.70;48.00;;;;;;5113333;28;20201;-46
2024/01/05 02:35:23;;;;;;;0.10;0.10;;;22.70;48.00;;;;;;5113452;28;20197;-46
2024/01/05 02:37:54;;;;;;;0.00;0.00;;;22.70;48.00;;;;;;5123782;27;20680;-46
2024/01/05 02:40:27;;;;;;;0.00;0.00;;;22.70;48.00;;;;;;5133212;27;20616;-44
2024/01/05 02:42:58;;;;;;;0.00;0.00;;;22.70;48.00;;;;;;5133645;27;20196;-43
2024/01/05 02:45:28;;;;;;;0.00;0.00;;;22.70;48.00;;;;;;5133213;27;20203;-48
2024/01/05 02:47:59;;;;;;;0.08;0.08;;;22.70;48.00;;;;;;5133523;27;20565;-45
2024/01/05 02:50:30;;;;;;;0.10;0.10;;;22.70;48.00;;;;;;5133129;27;20220;-42
2024/01/05 02:53:01;;;;;;;0.00;0.00;;;22.70;48.00;;;;;;5133918;27;20193;-48
2024/01/05 02:55:33;;;;;;;0.00;0.00;;;22.70;47.90;;;;;;5133104;27;20205;-44
2024/01/05 02:58:06;;;;;;;0.00;0.00;;;22.70;47.90;;;;;;5132625;27;20193;-45
2024/01/05 03:00:38;;;;;;;0.00;0.00;;;22.70;47.90;;;;;;5133078;27;20216;-47
2024/01/05 03:03:08;;;;;;;0.00;0.00;;;22.70;47.90;;;;;;5133235;27;20192;-48
2024/01/05 03:05:39;;;;;;;0.00;0.00;;;22.70;47.90;;;;;;5133218;27;20197;-46
2024/01/05 03:08:10;;;;;;;0.00;0.00;;;22.70;47.90;;;;;;5133205;27;20210;-46
2024/01/05 03:10:42;;;;;;;0.08;0.08;;;22.70;47.80;;;;;;5132276;27;20234;-44
2024/01/05 03:13:13;;;;;;;0.00;0.00;;;22.70;47.90;;;;;;5132700;27;20378;-45
2024/01/05 03:15:44;;;;;;;0.00;0.00;;;22.70;47.90;;;;;;5132455;27;20189;-46
2024/01/05 03:18:15;;;;;;;0.00;0.00;;;22.70;47.80;;;;;;5132408;27;20683;-46
2024/01/05 03:20:45;;;;;;;0.10;0.10;;;22.70;47.80;;;;;;5132378;27;20208;-45
2024/01/05 03:23:17;;;;;;;0.10;0.10;;;22.70;47.80;;;;;;5132121;27;20210;-46
2024/01/05 03:25:50;;;;;;;0.00;0.00;;;22.70;47.70;;;;;;5132598;27;20223;-43
2024/01/05 03:28:21;;;;;;;0.00;0.00;;;22.70;47.70;;;;;;5132969;27;20200;-45
2024/01/05 03:30:51;;;;;;;0.00;0.00;;;22.70;47.70;;;;;;5127956;27;20223;-49
2024/01/05 03:33:24;;;;;;;0.00;0.00;;;22.70;47.70;;;;;;5112096;28;20553;-41
2024/01/05 03:35:54;;;;;;;0.00;0.00;;;22.70;47.70;;;;;;5111865;28;20189;-42
2024/01/05 03:38:25;;;;;;;0.00;0.00;;;22.70;47.70;;;;;;5126572;27;20207;-45
2024/01/05 03:40:58;;;;;;;0.00;0.00;;;22.70;47.70;;;;;;5131067;27;20227;-44
2024/01/05 03:43:29;;;;;;;0.03;0.03;;;22.70;47.70;;;;;;5131798;27;20215;-48
2024/01/05 03:46:00;;;;;;;0.00;0.00;;;22.70;47.70;;;;;;5132247;27;20189;-46
2024/01/05 03:48:30;;;;;;;0.00;0.00;;;22.70;47.70;;;;;;5132607;27;20196;-46
2024/01/05 03:51:01;;;;;;;0.00;0.00;;;22.70;47.70;;;;;;5132788;27;20216;-46
2024/01/05 03:53:33;;;;;;;0.00;0.00;;;22.70;47.70;;;;;;5132506;27;20279;-43
2024/01/05 03:56:06;;;;;;;0.00;0.00;;;22.70;47.70;;;;;;5133110;27;20208;-46
2024/01/05 03:58:36;;;;;;;0.00;0.00;;;22.70;48.30;;;;;;5132477;27;20199;-46
2024/01/05 04:01:07;;;;;;;0.00;0.00;;;22.70;47.70;;;;;;5132552;28;20188;-46
2024/01/05 04:03:38;;;;;;;0.00;0.00;;;22.70;47.70;;;;;;5132281;28;20197;-45
2024/01/05 04:06:09;;;;;;;0.10;0.10;;;22.70;47.70;;;;;;5132072;28;20193;-44
2024/01/05 04:08:42;;;;;;;0.00;0.00;;;22.70;47.60;;;;;;5131960;28;20558;-45
2024/01/05 04:11:21;;;;;;;0.08;0.08;;;22.70;47.60;;;;;;5124793;28;20221;-46
2024/01/05 04:13:52;;;;;;;0.10;0.10;;;22.70;47.60;;;;;;5111641;28;20649;-40
2024/01/05 04:16:23;;;;;;;0.00;0.00;;;22.70;47.60;;;;;;5112462;27;20197;-44
2024/01/05 04:18:53;;;;;;;0.00;0.00;;;22.70;47.60;;;;;;5127333;28;20262;-42
2024/01/05 04:21:24;;;;;;;0.00;0.00;;;22.70;47.60;;;;;;5108805;27;20561;-40
2024/01/05 04:23:57;;;;;;;0.00;0.00;;;22.70;47.50;;;;;;5124675;28;20196;-43
2024/01/05 04:26:29;;;;;;;0.00;0.00;;;22.70;47.50;;;;;;5128350;28;20197;-44
2024/01/05 04:29:00;;;;;;;0.00;0.00;;;22.70;47.40;;;;;;5129108;28;20511;-41
2024/01/05 04:31:31;;;;;;;0.00;0.00;;;22.70;47.40;;;;;;5107699;28;20232;-41
2024/01/05 04:34:02;;;;;;;0.00;0.00;;;22.70;47.30;;;;;;5125043;28;20200;-45
2024/01/05 04:36:32;;;;;;;0.10;0.10;;;22.70;47.30;;;;;;5116002;27;20197;-41
2024/01/05 04:39:04;;;;;;;0.00;0.00;;;22.70;47.30;;;;;;5128124;28;20270;-41
2024/01/05 04:41:37;;;;;;;0.00;0.00;;;22.70;47.30;;;;;;5128866;27;20264;-42
2024/01/05 04:44:08;;;;;;;0.00;0.00;;;22.70;47.20;;;;;;5124507;28;20290;-44
2024/01/05 04:46:38;;;;;;;0.00;0.00;;;22.70;47.20;;;;;;5126936;28;20682;-43
2024/01/05 04:49:09;;;;;;;0.00;0.00;;;22.70;47.20;;;;;;5128080;28;20512;-44
2024/01/05 04:51:40;;;;;;;0.00;0.00;;;22.70;47.20;;;;;;5128228;28;20220;-43
2024/01/05 04:54:11;;;;;;;0.00;0.00;;;22.70;47.10;;;;;;5130246;27;20301;-42
2024/01/05 04:56:43;;;;;;;0.00;0.00;;;22.60;47.00;;;;;;5125246;27;20220;-42
2024/01/05 04:59:14;;;;;;;0.00;0.00;;;22.60;47.00;;;;;;5127706;27;20213;-42
2024/01/05 05:01:45;;;;;;;0.00;0.00;;;22.70;47.10;;;;;;5130169;27;20236;-42
2024/01/05 05:04:17;;;;;;;0.00;0.00;;;22.70;47.00;;;;;;5127217;27;20201;-41
2024/01/05 05:06:48;;;;;;;0.00;0.00;;;22.70;47.00;;;;;;5129287;27;20205;-44
2024/01/05 05:09:19;;;;;;;0.00;0.00;;;22.70;47.00;;;;;;5129942;27;20735;-45
2024/01/05 05:11:51;;;;;;;0.03;0.03;;;22.60;46.90;;;;;;5115649;27;20608;-45
2024/01/05 05:14:22;;;;;;;0.00;0.00;;;22.70;46.90;;;;;;5129108;27;20196;-44
2024/01/05 05:16:53;;;;;;;0.10;0.10;;;22.70;46.90;;;;;;5128760;27;20211;-45
2024/01/05 05:19:23;;;;;;;0.00;0.00;;;22.60;46.90;;;;;;5126763;27;20217;-44
2024/01/05 05:21:54;;;;;;;0.00;0.00;;;22.70;46.90;;;;;;5131817;27;20232;-44
2024/01/05 05:24:25;;;;;;;0.00;0.00;;;22.60;46.90;;;;;;5130264;27;20567;-43
2024/01/05 05:26:58;;;;;;;0.00;0.00;;;22.60;46.90;;;;;;5130990;27;20196;-43
2024/01/05 05:29:28;;;;;;;0.10;0.10;;;22.60;46.80;;;;;;5130984;27;21157;-43
2024/01/05 05:31:59;;;;;;;0.00;0.00;;;22.60;46.80;;;;;;5128225;27;20711;-44
2024/01/05 05:34:30;;;;;;;0.00;0.00;;;22.60;46.80;;;;;;5130258;27;20519;-41
2024/01/05 05:37:00;;;;;;;0.00;0.00;;;22.60;47.40;;;;;;5130613;27;20200;-43
2024/01/05 05:39:31;;;;;;;0.00;0.00;;;22.60;46.80;;;;;;5130895;27;20243;-46
2024/01/05 05:42:04;;;;;;;0.10;0.10;;;22.60;46.70;;;;;;5131187;27;20200;-45
2024/01/05 05:44:34;;;;;;;0.10;0.10;;;22.60;46.70;;;;;;5129799;27;20672;-49
2024/01/05 05:47:05;;;;;;;0.00;0.00;;;22.60;46.70;;;;;;5130222;27;20283;-45
2024/01/05 05:49:36;;;;;;;0.10;0.10;;;22.60;46.70;;;;;;5130121;27;20209;-44
2024/01/05 05:52:08;;;;;;;0.10;0.10;;;22.60;46.70;;;;;;5111880;27;20305;-45
2024/01/05 05:54:38;;;;;;;0.08;0.08;;;22.60;46.70;;;;;;5128056;27;20203;-47
2024/01/05 05:57:14;;;;;;;0.00;0.00;;;22.60;46.70;;;;;;5130429;27;20200;-48
2024/01/05 05:59:45;;;;;;;0.00;0.00;;;22.60;46.60;;;;;;5130905;27;20209;-44
2024/01/05 06:02:16;;;;;;;0.10;0.10;;;22.60;46.60;;;;;;5128949;27;20752;-44
2024/01/05 06:04:46;;;;;;;0.00;0.00;;;22.60;46.60;;;;;;5116196;27;20205;-42
2024/01/05 06:07:17;;;;;;;0.00;0.00;;;22.60;46.60;;;;;;5114852;27;20388;-43
2024/01/05 06:09:48;;;;;;;0.00;0.00;;;22.50;46.50;;;;;;5130833;27;20698;-43
2024/01/05 06:12:20;;;;;;;0.00;0.00;;;22.60;46.60;;;;;;5130672;27;20221;-45
2024/01/05 06:14:51;;;;;;;0.00;0.00;;;22.50;46.60;;;;;;5129487;27;20528;-43
2024/01/05 06:17:22;;;;;;;0.00;0.00;;;22.50;46.60;;;;;;5129286;27;20463;-45
2024/01/05 06:19:52;;;;;;;0.00;0.00;;;22.50;46.60;;;;;;5112639;27;20213;-42
2024/01/05 06:22:23;;;;;;;0.00;0.00;;;22.50;46.60;;;;;;5109294;28;20197;-45
2024/01/05 06:24:54;;;;;;;0.00;0.00;;;22.60;46.70;;;;;;5127091;27;20656;-40
2024/01/05 06:27:27;;;;;;;0.00;0.00;;;22.50;46.60;;;;;;5129647;27;20914;-42
2024/01/05 06:29:58;;;;;;;0.00;0.00;;;22.50;46.60;;;;;;5129759;27;20217;-43
2024/01/05 06:32:28;;;;;;;0.00;0.00;;;22.50;46.70;;;;;;5108110;27;20221;-49
2024/01/05 06:34:59;;;;;;;0.00;0.00;;;22.50;46.70;;;;;;5128206;27;20219;-45
2024/01/05 06:37:30;;;;;;;0.00;0.00;;;22.50;46.70;;;;;;5130125;27;20205;-44
2024/01/05 06:40:00;;;;;;;0.00;0.00;;;22.50;46.80;;;;;;5129542;27;20270;-46
2024/01/05 06:42:33;;;;;;;0.00;0.00;;;22.50;46.80;;;;;;5126507;27;20566;-45
2024/01/05 06:45:04;;;;;;;0.00;0.00;;;22.50;46.80;;;;;;5127297;27;20672;-45
2024/01/05 06:47:34;;;;;;;0.00;0.00;;;22.50;46.80;;;;;;5128669;27;20185;-44
2024/01/05 06:50:05;;;;;;;0.00;0.00;;;22.50;46.80;;;;;;5129897;27;20563;-44
2024/01/05 06:52:36;;;;;;;0.00;0.00;;;22.50;46.90;;;;;;5129324;27;20262;-43
2024/01/05 06:55:07;;;;;;;0.00;0.00;;;22.50;46.90;;;;;;5129183;27;20211;-43
2024/01/05 06:57:40;;;;;;;0.00;0.00;;;22.50;46.90;;;;;;5117380;27;20254;-46
2024/01/05 07:00:11;;;;;;;0.08;0.08;;;22.50;46.90;;;;;;5125298;27;20219;-46
2024/01/05 07:02:42;;;;;;;0.00;0.00;;;22.50;46.90;;;;;;5129483;27;20258;-45
2024/01/05 07:05:13;;;;;;;0.00;0.00;;;22.50;46.90;;;;;;5129029;27;20196;-46
2024/01/05 07:07:44;;;;;;;0.03;0.03;;;22.50;46.90;;;;;;5129887;27;20202;-44
2024/01/05 07:10:15;;;;;;;0.00;0.00;;;22.50;46.90;;;;;;5132806;27;20221;-44
2024/01/05 07:12:48;;;;;;;0.00;0.00;;;22.50;46.90;;;;;;5132674;27;20228;-41
2024/01/05 07:15:18;;;;;;;0.10;0.10;;;22.50;46.90;;;;;;5131718;27;20188;-46
2024/01/05 07:17:49;;;;;;;0.00;0.00;;;22.50;46.90;;;;;;5132431;27;20200;-43
2024/01/05 07:20:20;;;;;;;0.08;0.08;;;22.50;46.90;;;;;;5132624;27;20216;-46
2024/01/05 07:22:50;;;;;;;0.00;0.00;;;22.40;46.90;;;;;;5132821;27;20196;-48
2024/01/05 07:25:21;;;;;;;0.08;0.08;;;22.40;46.90;;;;;;5132426;27;20192;-45
2024/01/05 07:27:54;;;;;;;0.00;0.00;;;22.40;46.90;;;;;;5132283;27;20216;-46
2024/01/05 07:30:24;;;;;;;0.10;0.10;;;22.40;47.00;;;;;;5131389;27;20582;-45
2024/01/05 07:32:55;;;;;;;0.00;0.00;;;22.50;47.10;;;;;;5132124;27;20227;-46
2024/01/05 07:35:26;;;;;;;0.00;0.00;;;22.40;47.00;;;;;;5132239;27;20283;-43
2024/01/05 07:37:56;;;;;;;0.05;0.05;;;22.50;47.10;;;;;;5126249;27;20189;-46
2024/01/05 07:40:27;;;;;;;0.00;0.00;;;22.40;47.10;;;;;;5111028;28;20221;-44
2024/01/05 07:43:00;;;;;;;0.00;0.00;;;22.40;47.10;;;;;;5111256;28;20194;-44
2024/01/05 07:45:30;;;;;;;0.00;0.00;;;22.40;47.10;;;;;;5122991;27;20196;-44
2024/01/05 07:48:01;;;;;;;0.00;0.00;;;22.40;47.10;;;;;;5131713;27;20662;-47
2024/01/05 07:50:32;;;;;;;0.00;0.00;;;22.40;47.10;;;;;;5131723;27;20213;-46
2024/01/05 07:53:02;;;;;;;0.03;0.03;;;22.40;47.10;;;;;;5131887;27;20231;-46
2024/01/05 07:55:33;;;;;;;0.00;0.00;;;22.40;47.10;;;;;;5132159;27;20207;-46
2024/01/05 07:58:06;;;;;;;0.00;0.00;;;22.40;47.10;;;;;;5131535;27;20652;-43
2024/01/05 08:00:37;;;;;;;0.00;0.00;;;22.40;47.10;;;;;;5131777;27;20231;-45
2024/01/05 08:03:10;;;;;;;0.00;0.00;;;22.30;47.00;;;;;;5132365;28;20208;-47
2024/01/05 08:05:40;;;;;;;0.10;0.10;;;22.40;47.10;;;;;;5131674;28;20184;-42
2024/01/05 08:08:11;;;;;;;0.00;0.00;;;22.40;47.20;;;;;;5121076;28;20189;-46
2024/01/05 08:10:42;;;;;;;0.00;0.00;;;22.30;47.10;;;;;;5111645;28;20208;-45
2024/01/05 08:13:14;;;;;;;0.00;0.00;;;22.30;47.10;;;;;;5111681;28;20228;-42
2024/01/05 08:15:45;;;;;;;0.00;0.00;;;22.30;47.10;;;;;;5110673;28;20193;-43
2024/01/05 08:18:16;;;;;;;0.10;0.10;;;22.30;47.10;;;;;;5111561;28;20675;-45
2024/01/05 08:20:46;;;;;;;0.03;0.03;;;22.30;47.20;;;;;;5111452;28;20626;-45
2024/01/05 08:23:18;;;;;;;0.00;0.00;;;22.30;47.20;;;;;;5111674;28;20200;-46
2024/01/05 08:25:49;;;;;;;0.00;0.00;;;22.30;47.20;;;;;;5111679;28;20201;-42
2024/01/05 08:28:22;;;;;;;0.00;0.00;;;22.30;47.20;;;;;;5112975;28;20186;-46
2024/01/05 08:30:53;;;;;;;0.00;0.00;;;22.30;47.30;;;;;;5115002;28;20201;-48
2024/01/05 08:33:23;;;;;;;0.00;0.00;;;22.30;47.30;;;;;;5115265;28;20217;-49
2024/01/05 08:35:54;;;;;;;0.00;0.00;;;22.30;47.30;;;;;;5115218;28;20189;-45
2024/01/05 08:38:25;;;;;;;0.00;0.00;;;22.30;47.20;;;;;;5130029;27;20656;-46
2024/01/05 08:40:55;;;;;;;0.00;0.00;;;22.30;47.20;;;;;;5136074;27;20192;-45
2024/01/05 08:43:29;;;;;;;0.00;0.00;;;22.30;47.30;;;;;;5135985;27;20207;-44
2024/01/05 08:46:00;;;;;;;0.00;0.00;;;22.30;47.20;;;;;;5134890;27;20201;-42
2024/01/05 08:48:31;;;;;;;0.00;0.00;;;22.30;47.30;;;;;;5135321;27;20195;-43
2024/01/05 08:51:02;;;;;;;0.00;0.00;;;22.30;47.20;;;;;;5135892;27;20201;-45
2024/01/05 08:53:33;;;;;;;0.00;0.00;;;22.20;47.20;;;;;;5135843;27;20217;-49
2024/01/05 08:56:03;;;;;;;0.00;0.00;;;22.20;47.20;;;;;;5135900;27;20212;-44
2024/01/05 08:58:36;;;;;;;0.00;0.00;;;22.30;47.30;;;;;;5135197;27;20196;-44
2024/01/05 09:01:07;;;;;;;0.00;0.00;;;22.20;47.20;;;;;;5135003;27;20200;-46
2024/01/05 09:03:37;;;;;;;0.00;0.00;;;22.20;47.20;;;;;;5135837;27;20200;-46
2024/01/05 09:06:08;;;;;;;0.00;0.00;;;22.20;47.30;;;;;;5135756;27;20197;-46
2024/01/05 09:08:40;;;;;;;0.00;0.00;;;22.20;47.20;;;;;;5135399;27;20713;-45
2024/01/05 09:11:11;;;;;;;0.00;0.00;;;22.20;47.30;;;;;;5135424;27;20558;-46
2024/01/05 09:13:43;;;;;;;0.00;0.00;;;22.20;47.30;;;;;;5134963;27;20224;-45
2024/01/05 09:16:14;;;;;;;0.00;0.00;;;22.20;47.30;;;;;;5135293;27;20203;-49
2024/01/05 09:18:45;;;;;;;0.00;0.00;;;22.20;47.30;;;;;;5135364;27;20652;-47
2024/01/05 09:21:16;;;;;;;0.00;0.00;;;22.20;47.30;;;;;;5134630;27;20192;-43
2024/01/05 09:23:46;;;;;;;0.00;0.00;;;22.20;47.30;;;;;;5134713;27;20199;-48
2024/01/05 09:26:17;;;;;;;0.00;0.00;;;22.20;47.30;;;;;;5135178;27;20199;-46
2024/01/05 09:28:50;;;;;;;0.00;0.00;;;22.20;47.30;;;;;;5134540;27;20209;-49
2024/01/05 09:31:21;;;;;;;0.00;0.00;;;22.10;47.30;;;;;;5134996;27;20279;-43
2024/01/05 09:33:52;;;;;;;0.08;0.08;;;22.20;47.70;;;;;;5126200;27;20215;-45
2024/01/05 09:36:23;;;;;;;0.00;0.00;;;22.20;47.30;;;;;;5114066;28;20193;-45
2024/01/05 09:38:54;;;;;;;0.00;0.00;;;22.10;47.30;;;;;;5132211;27;20209;-48
2024/01/05 09:41:25;;;;;;;0.00;0.00;;;22.10;47.30;;;;;;5134700;27;20192;-46
2024/01/05 09:43:58;;;;;;;0.05;0.05;;;22.10;47.40;;;;;;5133682;27;20185;-49
2024/01/05 09:46:29;;;;;;;0.10;0.10;;;22.10;47.30;;;;;;5134440;27;20204;-45
2024/01/05 09:49:03;;;;;;;0.08;0.08;;;22.10;47.40;;;;;;5133568;27;20247;-46
2024/01/05 09:51:34;;;;;;;0.00;0.00;;;22.10;47.40;;;;;;5134752;27;20719;-48
2024/01/05 09:54:05;;;;;;;0.00;0.00;;;22.10;47.40;;;;;;5123337;27;20204;-48
2024/01/05 09:56:37;;;;;;;0.00;0.00;;;22.10;47.40;;;;;;5129378;27;20199;-49
2024/01/05 09:59:10;;;;;;;0.03;0.03;;;22.10;47.40;;;;;;5126768;27;20716;-48
2024/01/05 10:01:42;;;;;;;0.00;0.00;;;22.10;47.50;;;;;;5109638;28;20197;-44
2024/01/05 10:04:13;;;;;;;0.00;0.00;;;22.10;47.50;;;;;;5124133;27;20525;-44
2024/01/05 10:06:44;;;;;;;0.05;0.05;;;22.00;47.40;;;;;;5128638;27;20266;-43
2024/01/05 10:09:14;;;;;;;0.00;0.00;;;22.00;47.40;;;;;;5130764;27;20217;-46
2024/01/05 10:11:46;;;;;;;0.00;0.00;;;22.10;47.50;;;;;;5130707;27;20189;-42
2024/01/05 10:14:19;;;;;;;0.00;0.00;;;22.00;47.50;;;;;;5127973;27;20649;-43
2024/01/05 10:16:50;;;;;;;0.00;0.00;;;22.10;47.50;;;;;;5109366;28;20783;-43
2024/01/05 10:19:22;;;;;;;0.00;0.00;;;22.00;47.40;;;;;;5123772;27;20212;-42
2024/01/05 10:21:52;;;;;;;0.00;0.00;;;22.00;47.40;;;;;;5119301;27;20197;-46
2024/01/05 10:24:25;;;;;;;0.10;0.10;;;22.00;47.40;;;;;;5123735;27;20664;-45
2024/01/05 10:27:05;;;;;;;0.10;0.10;;;22.00;47.50;;;;;;5130269;27;20196;-49
2024/01/05 10:29:38;;;;;;;0.00;0.00;;;22.00;47.50;;;;;;5129297;27;20223;-47
2024/01/05 10:32:16;;;;;;;0.00;0.00;;;22.00;47.40;;;;;;5130132;27;20262;-41
2024/01/05 10:34:48;;;;;;;0.10;0.10;;;22.00;47.40;;;;;;5122163;27;20232;-41
2024/01/05 10:37:20;;;;;;;0.10;0.10;;;22.00;47.50;;;;;;5115607;27;20200;-42
2024/01/05 10:39:52;;;;;;;0.00;0.00;;;22.00;47.50;;;;;;5130085;27;20577;-41
2024/01/05 10:42:24;;;;;;;0.00;0.00;;;22.00;47.50;;;;;;5129471;27;20251;-44
2024/01/05 10:44:57;;;;;;;0.05;0.05;;;21.90;47.50;;;;;;5128959;27;20248;-47
2024/01/05 10:47:29;;;;;;;0.10;0.10;;;21.90;47.50;;;;;;5128956;27;20193;-42
2024/01/05 10:50:00;;;;;;;0.10;0.10;;;21.90;47.50;;;;;;5118003;27;20224;-41
2024/01/05 10:52:32;;;;;;;0.00;0.00;;;21.90;47.50;;;;;;5128958;27;20223;-41
2024/01/05 10:55:03;;;;;;;0.00;0.00;;;21.90;47.60;;;;;;5129415;27;20596;-43
2024/01/05 10:57:37;;;;;;;0.10;0.10;;;21.90;47.50;;;;;;5129877;27;20250;-43
2024/01/05 11:00:13;;;;;;;0.00;0.00;;;21.90;47.60;;;;;;5129460;27;20228;-42
2024/01/05 11:02:45;;;;;;;0.00;0.00;;;21.90;47.60;;;;;;5118799;27;20192;-43
2024/01/05 11:05:16;;;;;;;0.10;0.10;;;21.90;47.50;;;;;;5129193;27;20215;-42
2024/01/05 11:07:50;;;;;;;0.10;0.10;;;21.90;47.60;;;;;;5129793;27;20242;-42
2024/01/05 11:10:30;;;;;;;0.05;0.05;;;21.90;47.50;;;;;;5129221;27;20216;-41
2024/01/05 11:13:32;;;;;;;0.00;0.00;;;21.90;47.60;;;;;;5128551;27;20232;-41
2024/01/05 11:16:20;;;;;;;0.10;0.10;;;21.90;47.50;;;;;;5108641;28;20225;-41
2024/01/05 11:19:20;;;;;;;0.10;0.10;;;21.90;47.50;;;;;;5115934;27;20292;-42
2024/01/05 11:21:56;;;;;;;0.00;0.00;;;21.80;47.50;;;;;;5128941;27;20197;-41
2024/01/05 11:24:28;;;;;;;0.00;0.00;;;21.80;47.50;;;;;;5128196;27;20619;-44
2024/01/05 11:26:59;;;;;;;0.00;0.00;;;21.80;47.50;;;;;;5119540;27;20193;-42
2024/01/05 11:29:51;;;;;;;0.00;0.00;;;21.80;47.50;;;;;;5119309;27;20243;-47
2024/01/05 11:32:44;;;;;;;0.00;0.00;;;21.80;47.60;;;;;;5128408;27;20201;-43
2024/01/05 11:35:43;;;;;;;0.00;0.00;;;21.80;47.60;;;;;;5115018;27;20205;-42
2024/01/05 11:38:32;;;;;;;0.10;0.10;;;21.80;47.60;;;;;;5112923;27;20197;-46
2024/01/05 11:41:17;;;;;;;0.10;0.10;;;21.80;47.50;;;;;;5128693;27;20664;-41
2024/01/05 11:43:48;;;;;;;0.00;0.00;;;21.80;47.50;;;;;;5128444;27;20684;-41
2024/01/05 11:46:18;;;;;;;0.00;0.00;;;21.80;47.60;;;;;;5128269;27;20189;-41
2024/01/05 11:48:55;;;;;;;0.00;0.00;;;21.70;47.60;;;;;;5127988;27;20223;-43
2024/01/05 11:51:25;;;;;;;0.08;0.08;;;21.70;47.60;;;;;;5122995;27;20653;-45
2024/01/05 11:53:56;;;;;;;0.00;0.00;;;21.70;47.60;;;;;;5113090;27;20220;-43
2024/01/05 11:56:27;;;;;;;0.00;0.00;;;21.70;47.60;;;;;;5129211;27;20611;-43
2024/01/05 11:58:58;;;;;;;0.00;0.00;;;21.70;47.60;;;;;;5128527;27;20211;-42
2024/01/05 12:01:28;;;;;;;0.00;0.00;;;21.70;47.60;;;;;;5128527;27;20204;-44
2024/01/05 12:04:01;;;;;;;0.10;0.10;;;21.70;47.60;;;;;;5128253;27;20649;-42
2024/01/05 12:06:32;;;;;;;0.03;0.03;;;21.70;47.60;;;;;;5116170;27;20197;-42
2024/01/05 12:09:05;;;;;;;0.00;0.00;;;21.70;47.60;;;;;;5128761;28;20222;-46
2024/01/05 12:11:35;;;;;;;0.00;0.00;;;21.70;47.60;;;;;;5128227;27;20511;-41
2024/01/05 12:14:06;;;;;;;0.00;0.00;;;21.70;47.60;;;;;;5128567;27;20216;-41
2024/01/05 12:16:37;;;;;;;0.00;0.00;;;21.70;47.60;;;;;;5128251;27;20196;-41
2024/01/05 12:19:23;;;;;;;0.00;0.00;;;21.70;47.60;;;;;;5127549;27;20239;-42
2024/01/05 12:21:57;;;;;;;0.00;0.00;;;21.70;47.60;;;;;;5110439;28;20193;-41
2024/01/05 12:24:27;;;;;;;0.10;0.10;;;21.60;47.60;;;;;;5116492;28;20203;-45
2024/01/05 12:26:58;;;;;;;0.00;0.00;;;21.60;47.60;;;;;;5127804;28;20200;-43
2024/01/05 12:29:29;;;;;;;0.00;0.00;;;21.60;47.60;;;;;;5128030;28;20215;-42
2024/01/05 12:32:01;;;;;;;0.03;0.03;;;21.60;47.60;;;;;;5128534;28;20201;-42
2024/01/05 12:34:34;;;;;;;0.10;0.10;;;21.60;47.70;;;;;;5125217;28;20224;-45
2024/01/05 12:37:12;;;;;;;0.10;0.10;;;21.60;47.60;;;;;;5128812;28;20625;-42
2024/01/05 12:39:43;;;;;;;0.00;0.00;;;21.60;47.60;;;;;;5127716;28;20454;-41
2024/01/05 12:42:14;;;;;;;0.00;0.00;;;21.60;47.60;;;;;;5129098;27;20200;-45
2024/01/05 12:44:44;;;;;;;0.00;0.00;;;21.60;47.60;;;;;;5127784;27;20199;-44
2024/01/05 12:47:29;;;;;;;0.00;0.00;;;21.60;47.70;;;;;;5117248;27;20197;-45
2024/01/05 12:50:01;;;;;;;0.10;0.10;;;21.60;47.60;;;;;;5118735;28;20223;-42
2024/01/05 12:52:39;;;;;;;0.10;0.10;;;21.60;47.60;;;;;;5127732;28;20201;-41
2024/01/05 12:55:13;;;;;;;0.10;0.10;;;21.60;47.70;;;;;;5127698;28;20200;-44
2024/01/05 12:57:46;;;;;;;0.00;0.00;;;21.60;47.70;;;;;;5128164;28;20199;-45
2024/01/05 13:00:17;;;;;;;0.00;0.00;;;21.60;47.70;;;;;;5117763;28;20217;-48
2024/01/05 13:02:47;;;;;;;0.00;0.00;;;21.50;47.60;;;;;;5107322;28;20201;-44
2024/01/05 13:05:34;;;;;;;0.00;0.00;;;21.50;47.70;;;;;;5120192;28;20197;-46
2024/01/05 13:08:05;;;;;;;0.00;0.00;;;21.50;47.70;;;;;;5127961;28;20257;-47
2024/01/05 13:10:36;;;;;;;0.00;0.00;;;21.50;47.70;;;;;;5126644;28;20232;-42
2024/01/05 13:13:07;;;;;;;0.00;0.00;;;21.50;47.60;;;;;;5122902;27;20301;-46